Time;durP1;ratioP1;P1;durP2;ratioP2;P2;SDS_P1;SDS_P2;PMS_P1;PMS_P2;Temp;Humidity;BMP_temperature;BMP_pressure;BME280_temperature;BME280_humidity;BME280_pressure;Samples;Min_cycle;Max_cycle;Signal;HPM_P1;HPM_P2
2023/07/24 00:00:16;;;;;;;2.03;1.90;;;23.10;92.80;;;;;;5090098;28;20454;-52
2023/07/24 00:02:42;;;;;;;12.50;2.00;;;23.10;92.80;;;;;;5092236;28;20482;-51
2023/07/24 00:05:10;;;;;;;1.93;1.73;;;23.10;92.80;;;;;;5088170;28;20471;-50
2023/07/24 00:07:38;;;;;;;2.57;2.10;;;23.10;92.70;;;;;;5090387;28;20559;-51
2023/07/24 00:10:05;;;;;;;1.70;1.60;;;23.10;92.80;;;;;;5083247;28;21448;-52
2023/07/24 00:12:32;;;;;;;1.50;1.33;;;23.10;92.60;;;;;;5082392;28;20963;-54
2023/07/24 00:14:59;;;;;;;2.20;1.47;;;23.10;92.60;;;;;;5076823;28;20550;-53
2023/07/24 00:17:25;;;;;;;1.67;1.50;;;23.10;92.60;;;;;;5077276;28;20483;-52
2023/07/24 00:19:52;;;;;;;2.13;1.93;;;23.10;92.60;;;;;;5084630;28;20971;-54
2023/07/24 00:22:19;;;;;;;1.97;1.63;;;23.10;92.60;;;;;;5085417;28;20458;-51
2023/07/24 00:24:47;;;;;;;1.53;1.43;;;23.10;92.60;;;;;;5083267;28;20459;-52
2023/07/24 00:27:14;;;;;;;2.27;1.60;;;23.00;92.50;;;;;;5084935;28;22121;-53
2023/07/24 00:29:41;;;;;;;1.83;1.50;;;23.00;92.50;;;;;;5080935;28;20550;-53
2023/07/24 00:32:08;;;;;;;1.70;1.60;;;23.10;92.50;;;;;;5083540;28;20544;-56
2023/07/24 00:34:35;;;;;;;1.83;1.60;;;23.00;92.30;;;;;;5086272;28;20467;-54
2023/07/24 00:37:02;;;;;;;1.60;1.37;;;23.00;92.30;;;;;;5082846;28;20480;-53
2023/07/24 00:39:29;;;;;;;1.60;1.40;;;23.00;92.40;;;;;;5085834;28;20467;-52
2023/07/24 00:41:57;;;;;;;1.60;1.50;;;23.00;92.30;;;;;;5085971;28;20462;-52
2023/07/24 00:44:24;;;;;;;1.50;1.40;;;23.00;92.30;;;;;;5086224;28;21002;-54
2023/07/24 00:46:51;;;;;;;1.90;1.70;;;23.00;92.20;;;;;;5085818;28;20467;-53
2023/07/24 00:49:18;;;;;;;2.33;1.60;;;23.00;92.30;;;;;;5083462;28;20462;-55
2023/07/24 00:51:45;;;;;;;2.03;1.67;;;23.00;92.20;;;;;;5082595;28;21273;-54
2023/07/24 00:54:16;;;;;;;1.50;1.40;;;23.00;92.20;;;;;;5084827;28;20573;-50
2023/07/24 00:56:44;;;;;;;2.03;1.53;;;23.00;92.20;;;;;;5088713;28;20507;-52
2023/07/24 00:59:12;;;;;;;1.80;1.70;;;23.00;92.20;;;;;;5087367;27;20451;-52
2023/07/24 01:01:41;;;;;;;2.70;1.80;;;23.00;92.10;;;;;;5085794;28;20466;-52
2023/07/24 01:04:08;;;;;;;1.50;1.40;;;23.00;92.10;;;;;;5083136;28;20460;-54
2023/07/24 01:06:35;;;;;;;1.70;1.60;;;23.00;92.10;;;;;;5083321;28;20486;-54
2023/07/24 01:09:02;;;;;;;2.00;1.70;;;23.00;91.90;;;;;;5079680;28;20456;-51
2023/07/24 01:11:33;;;;;;;2.23;1.40;;;23.00;92.10;;;;;;5084113;28;20466;-51
2023/07/24 01:14:05;;;;;;;1.50;1.40;;;23.00;92.00;;;;;;5081487;28;20905;-50
2023/07/24 01:16:38;;;;;;;1.70;1.60;;;23.00;92.00;;;;;;5079709;28;20470;-53
2023/07/24 01:19:12;;;;;;;1.90;1.60;;;23.00;91.90;;;;;;5074697;28;20907;-52
2023/07/24 01:21:51;;;;;;;1.70;1.50;;;23.00;91.90;;;;;;5078082;28;20463;-53
2023/07/24 01:24:30;;;;;;;1.93;1.43;;;23.00;91.90;;;;;;5077683;28;20460;-54
2023/07/24 01:26:58;;;;;;;1.90;1.50;;;23.00;91.90;;;;;;5068184;28;20471;-51
2023/07/24 01:29:25;;;;;;;1.57;1.47;;;23.00;91.80;;;;;;5071059;28;20458;-52
2023/07/24 01:31:51;;;;;;;1.90;1.80;;;23.00;91.80;;;;;;5072742;28;20818;-53
2023/07/24 01:34:18;;;;;;;1.60;1.30;;;23.00;91.80;;;;;;5083225;28;21012;-53
2023/07/24 01:36:45;;;;;;;2.43;1.77;;;23.00;91.80;;;;;;5076901;28;20487;-55
2023/07/24 01:39:12;;;;;;;1.90;1.40;;;23.00;91.80;;;;;;5067755;28;20460;-53
2023/07/24 01:41:39;;;;;;;1.60;1.40;;;23.00;91.80;;;;;;5074685;28;20844;-54
2023/07/24 01:44:07;;;;;;;2.17;1.73;;;23.00;91.80;;;;;;5074987;28;20459;-54
2023/07/24 01:46:34;;;;;;;1.33;1.23;;;23.00;91.70;;;;;;5078453;28;20811;-55
2023/07/24 01:49:01;;;;;;;1.53;1.30;;;23.00;91.70;;;;;;5072920;28;20467;-52
2023/07/24 01:51:27;;;;;;;1.63;1.53;;;23.00;91.70;;;;;;5070816;28;20719;-54
2023/07/24 01:53:54;;;;;;;2.03;1.83;;;23.00;91.70;;;;;;5067345;28;20464;-58
2023/07/24 01:56:21;;;;;;;1.80;1.60;;;23.00;91.70;;;;;;5072709;28;20459;-52
2023/07/24 01:58:48;;;;;;;1.60;1.20;;;23.00;91.70;;;;;;5069669;28;20478;-51
2023/07/24 02:01:16;;;;;;;1.80;1.60;;;23.00;91.60;;;;;;5076678;28;20459;-52
2023/07/24 02:03:42;;;;;;;1.90;1.70;;;23.00;91.60;;;;;;5076502;28;21280;-55
2023/07/24 02:06:09;;;;;;;1.50;1.40;;;23.00;91.60;;;;;;5080500;28;20463;-54
2023/07/24 02:08:36;;;;;;;1.70;1.47;;;23.00;91.70;;;;;;5076534;28;20466;-56
2023/07/24 02:11:02;;;;;;;1.40;1.20;;;22.90;91.60;;;;;;5079380;28;20828;-52
2023/07/24 02:13:29;;;;;;;1.87;1.67;;;23.00;91.60;;;;;;5073408;28;20728;-55
2023/07/24 02:15:56;;;;;;;1.60;1.50;;;23.00;91.60;;;;;;5068628;28;20735;-52
2023/07/24 02:18:24;;;;;;;1.90;1.40;;;23.00;91.50;;;;;;5090344;28;20483;-49
2023/07/24 02:20:51;;;;;;;1.70;1.60;;;22.90;91.50;;;;;;5093166;28;20452;-50
2023/07/24 02:23:17;;;;;;;1.77;1.23;;;23.00;91.50;;;;;;5085993;28;20454;-53
2023/07/24 02:25:44;;;;;;;1.50;1.40;;;23.00;91.50;;;;;;5085626;28;20466;-54
2023/07/24 02:28:11;;;;;;;1.30;1.20;;;23.00;91.50;;;;;;5088225;28;21087;-55
2023/07/24 02:30:39;;;;;;;1.60;1.43;;;23.00;91.50;;;;;;5078658;28;20463;-53
2023/07/24 02:33:06;;;;;;;1.50;1.10;;;23.00;91.40;;;;;;5082010;28;20463;-54
2023/07/24 02:35:39;;;;;;;1.40;1.30;;;23.00;91.40;;;;;;5085869;28;20484;-55
2023/07/24 02:38:06;;;;;;;1.70;1.47;;;23.00;91.50;;;;;;5070168;28;20526;-53
2023/07/24 02:40:33;;;;;;;1.60;1.50;;;23.00;91.50;;;;;;5074537;28;20461;-55
2023/07/24 02:42:59;;;;;;;1.40;1.30;;;22.90;91.40;;;;;;5066562;28;20960;-54
2023/07/24 02:45:26;;;;;;;2.17;1.50;;;23.00;91.40;;;;;;5068191;28;20463;-53
2023/07/24 02:47:53;;;;;;;1.60;1.50;;;22.90;91.40;;;;;;5073098;28;20584;-53
2023/07/24 02:50:20;;;;;;;2.40;1.80;;;22.90;91.40;;;;;;5076942;28;20452;-55
2023/07/24 02:52:48;;;;;;;1.30;1.10;;;22.90;91.40;;;;;;5076140;28;20526;-54
2023/07/24 02:55:14;;;;;;;1.70;1.60;;;22.90;91.30;;;;;;5072595;28;22527;-53
2023/07/24 02:57:41;;;;;;;1.43;1.33;;;22.90;91.30;;;;;;5073788;28;20556;-55
2023/07/24 03:00:12;;;;;;;2.00;1.70;;;22.90;91.40;;;;;;5069523;28;20459;-54
2023/07/24 03:02:38;;;;;;;1.40;1.30;;;22.90;91.30;;;;;;5079299;28;20456;-53
2023/07/24 03:05:06;;;;;;;1.87;1.40;;;22.90;91.30;;;;;;5083432;28;20823;-56
2023/07/24 03:07:33;;;;;;;1.50;1.30;;;22.90;91.30;;;;;;5090271;28;20842;-54
2023/07/24 03:10:01;;;;;;;1.70;1.50;;;22.90;91.30;;;;;;5086198;28;20467;-53
2023/07/24 03:12:27;;;;;;;1.30;1.10;;;22.90;91.20;;;;;;5084280;28;20715;-51
2023/07/24 03:14:54;;;;;;;1.37;1.23;;;22.90;91.20;;;;;;5082651;28;20462;-52
2023/07/24 03:17:21;;;;;;;2.13;1.13;;;22.90;91.30;;;;;;5079406;28;20516;-54
2023/07/24 03:19:49;;;;;;;1.57;1.30;;;22.90;91.20;;;;;;5085867;28;20462;-54
2023/07/24 03:22:16;;;;;;;1.47;1.27;;;22.90;91.20;;;;;;5083236;28;20459;-55
2023/07/24 03:24:43;;;;;;;2.17;1.63;;;22.90;91.20;;;;;;5084405;28;20506;-55
2023/07/24 03:27:11;;;;;;;1.30;1.20;;;22.90;91.20;;;;;;5079676;28;20464;-55
2023/07/24 03:29:40;;;;;;;1.20;1.00;;;22.90;91.30;;;;;;5082627;28;20486;-50
2023/07/24 03:32:08;;;;;;;1.60;1.30;;;22.90;91.20;;;;;;5076429;28;20560;-52
2023/07/24 03:34:34;;;;;;;1.60;1.43;;;22.90;91.10;;;;;;5074883;28;20537;-50
2023/07/24 03:37:01;;;;;;;1.70;1.60;;;22.90;91.20;;;;;;5081802;28;20474;-53
2023/07/24 03:39:28;;;;;;;1.30;1.20;;;22.90;91.20;;;;;;5075259;28;20474;-51
2023/07/24 03:41:55;;;;;;;1.53;1.37;;;22.90;91.20;;;;;;5072076;28;20459;-54
2023/07/24 03:44:23;;;;;;;1.50;1.40;;;22.90;91.20;;;;;;5067943;28;20470;-52
2023/07/24 03:46:49;;;;;;;1.83;1.40;;;22.90;91.20;;;;;;5073513;28;20462;-51
2023/07/24 03:49:16;;;;;;;1.77;1.37;;;22.90;91.20;;;;;;5078694;28;20456;-52
2023/07/24 03:51:43;;;;;;;1.93;1.80;;;22.80;91.10;;;;;;5076019;28;20520;-51
2023/07/24 03:54:10;;;;;;;1.40;1.30;;;22.90;91.10;;;;;;5072595;28;20454;-53
2023/07/24 03:56:36;;;;;;;1.43;1.33;;;22.90;91.10;;;;;;5070177;28;20456;-54
2023/07/24 03:59:03;;;;;;;1.40;1.10;;;22.90;91.10;;;;;;5068685;28;21009;-55
2023/07/24 04:01:31;;;;;;;1.53;1.43;;;22.90;91.50;;;;;;5070298;28;20452;-54
2023/07/24 04:03:58;;;;;;;1.30;1.00;;;22.90;91.00;;;;;;5072203;28;20547;-55
2023/07/24 04:06:25;;;;;;;1.50;1.40;;;22.90;91.10;;;;;;5073868;28;20458;-53
2023/07/24 04:08:51;;;;;;;2.00;1.70;;;22.90;91.10;;;;;;5075006;28;23983;-55
2023/07/24 04:11:17;;;;;;;1.97;1.60;;;22.90;91.10;;;;;;5077504;28;20486;-56
2023/07/24 04:13:44;;;;;;;1.60;1.30;;;22.90;91.50;;;;;;5070996;28;20201;-50
2023/07/24 04:16:11;;;;;;;1.67;1.57;;;22.80;91.00;;;;;;5062724;28;20459;-52
2023/07/24 04:18:39;;;;;;;1.43;1.30;;;22.80;91.00;;;;;;5083488;28;20482;-53
2023/07/24 04:21:05;;;;;;;1.53;1.43;;;22.80;91.00;;;;;;5082068;28;21725;-52
2023/07/24 04:23:32;;;;;;;1.50;1.40;;;22.90;91.00;;;;;;5081621;28;20456;-53
2023/07/24 04:25:59;;;;;;;1.90;1.27;;;22.80;91.00;;;;;;5083965;28;20470;-55
2023/07/24 04:28:26;;;;;;;1.33;1.23;;;22.80;91.00;;;;;;5080917;28;20463;-50
2023/07/24 04:30:52;;;;;;;2.00;1.53;;;22.80;91.00;;;;;;5070337;28;21073;-53
2023/07/24 04:33:19;;;;;;;1.40;1.30;;;22.80;91.30;;;;;;5075965;28;20500;-50
2023/07/24 04:35:49;;;;;;;1.33;1.00;;;22.80;90.90;;;;;;5082790;28;20888;-53
2023/07/24 04:38:16;;;;;;;1.27;1.13;;;22.80;91.00;;;;;;5073569;28;20506;-53
2023/07/24 04:40:44;;;;;;;1.20;1.10;;;22.80;90.90;;;;;;5082639;28;20458;-54
2023/07/24 04:43:11;;;;;;;1.67;1.37;;;22.80;90.90;;;;;;5084542;28;20477;-53
2023/07/24 04:45:38;;;;;;;1.40;1.10;;;22.80;90.90;;;;;;5080499;28;20462;-51
2023/07/24 04:48:05;;;;;;;1.73;1.63;;;22.80;90.90;;;;;;5079088;28;20462;-52
2023/07/24 04:50:32;;;;;;;1.70;1.37;;;22.80;90.90;;;;;;5081110;28;20461;-53
2023/07/24 04:53:01;;;;;;;1.73;1.50;;;22.80;90.90;;;;;;5085106;28;20520;-49
2023/07/24 04:55:27;;;;;;;1.27;1.10;;;22.80;90.90;;;;;;5087946;28;20967;-51
2023/07/24 04:57:54;;;;;;;1.53;1.43;;;22.80;90.90;;;;;;5081938;28;20462;-53
2023/07/24 05:00:21;;;;;;;1.67;1.20;;;22.80;90.90;;;;;;5077992;28;21054;-51
2023/07/24 05:02:47;;;;;;;1.53;1.40;;;22.80;90.90;;;;;;5085138;28;20451;-57
2023/07/24 05:05:14;;;;;;;1.57;1.40;;;22.80;90.90;;;;;;5094587;28;20459;-54
2023/07/24 05:07:41;;;;;;;1.50;1.30;;;22.80;90.90;;;;;;5080824;28;20522;-51
2023/07/24 05:10:09;;;;;;;1.30;1.10;;;22.80;90.80;;;;;;5080146;28;20473;-54
2023/07/24 05:12:36;;;;;;;1.43;1.20;;;22.80;90.80;;;;;;5081569;28;20981;-54
2023/07/24 05:15:03;;;;;;;1.90;1.37;;;22.80;90.80;;;;;;5086992;28;20848;-55
2023/07/24 05:17:29;;;;;;;1.50;1.40;;;22.80;90.80;;;;;;5089012;28;20456;-53
2023/07/24 05:19:56;;;;;;;1.67;1.50;;;22.80;90.90;;;;;;5083075;28;20483;-54
2023/07/24 05:22:23;;;;;;;1.50;1.27;;;22.80;90.80;;;;;;5083491;28;20962;-51
2023/07/24 05:24:50;;;;;;;1.70;1.33;;;22.80;90.80;;;;;;5085223;28;20464;-51
2023/07/24 05:27:18;;;;;;;1.57;1.30;;;22.80;90.80;;;;;;5084117;28;20840;-53
2023/07/24 05:29:44;;;;;;;1.83;1.40;;;22.80;90.90;;;;;;5083334;28;20467;-55
2023/07/24 05:32:11;;;;;;;1.33;1.20;;;22.80;90.80;;;;;;5071428;28;20467;-54
2023/07/24 05:34:38;;;;;;;1.63;1.20;;;22.80;90.90;;;;;;5075036;28;21214;-52
2023/07/24 05:37:06;;;;;;;1.50;1.23;;;22.80;90.80;;;;;;5082513;28;20490;-55
2023/07/24 05:39:33;;;;;;;1.40;1.20;;;22.80;90.80;;;;;;5072977;28;20479;-53
2023/07/24 05:41:59;;;;;;;1.50;1.40;;;22.80;90.80;;;;;;5073214;28;20466;-52
2023/07/24 05:44:27;;;;;;;1.20;0.90;;;22.80;90.70;;;;;;5068499;28;21141;-51
2023/07/24 05:46:54;;;;;;;1.70;1.27;;;22.80;90.80;;;;;;5071437;28;20501;-52
2023/07/24 05:49:21;;;;;;;1.70;1.27;;;22.80;90.80;;;;;;5074115;28;20968;-50
2023/07/24 05:51:47;;;;;;;1.50;1.10;;;22.80;90.80;;;;;;5080034;28;20915;-50
2023/07/24 05:54:14;;;;;;;1.30;1.20;;;22.80;90.80;;;;;;5086307;28;20467;-50
2023/07/24 05:56:41;;;;;;;1.10;0.90;;;22.80;90.80;;;;;;5078393;28;20463;-48
2023/07/24 05:59:07;;;;;;;1.30;1.10;;;22.80;90.80;;;;;;5077715;28;20478;-52
2023/07/24 06:01:35;;;;;;;2.17;1.67;;;22.80;90.70;;;;;;5075760;28;20471;-53
2023/07/24 06:04:02;;;;;;;1.40;1.30;;;22.80;90.70;;;;;;5077422;28;20966;-52
2023/07/24 06:06:29;;;;;;;1.47;1.37;;;22.80;90.70;;;;;;5082520;27;20466;-53
2023/07/24 06:08:55;;;;;;;1.20;1.00;;;22.80;90.70;;;;;;5068043;28;20560;-53
2023/07/24 06:11:22;;;;;;;1.27;1.13;;;22.80;90.70;;;;;;5073569;28;20455;-52
2023/07/24 06:13:49;;;;;;;1.30;1.10;;;22.80;90.70;;;;;;5072510;28;20455;-54
2023/07/24 06:16:16;;;;;;;1.30;1.10;;;22.80;90.70;;;;;;5067544;28;20930;-54
2023/07/24 06:18:44;;;;;;;1.47;1.30;;;22.80;90.70;;;;;;5081720;28;21006;-54
2023/07/24 06:21:11;;;;;;;1.37;1.00;;;22.80;90.70;;;;;;5082173;28;20464;-53
2023/07/24 06:23:37;;;;;;;1.30;1.20;;;22.80;90.70;;;;;;5083287;28;21010;-53
2023/07/24 06:26:04;;;;;;;1.30;1.20;;;22.80;90.70;;;;;;5080886;28;20474;-54
2023/07/24 06:28:31;;;;;;;1.43;1.33;;;22.70;90.70;;;;;;5082894;28;20466;-52
2023/07/24 06:30:58;;;;;;;1.70;1.10;;;22.80;90.70;;;;;;5075464;27;21164;-53
2023/07/24 06:33:25;;;;;;;1.90;1.27;;;22.80;90.70;;;;;;5074246;28;20455;-51
2023/07/24 06:35:53;;;;;;;1.33;1.17;;;22.80;90.70;;;;;;5086750;28;20471;-54
2023/07/24 06:38:21;;;;;;;1.50;1.40;;;22.80;90.70;;;;;;5086854;28;20910;-52
2023/07/24 06:40:47;;;;;;;1.23;1.13;;;22.80;90.70;;;;;;5087621;28;21052;-53
2023/07/24 06:43:14;;;;;;;1.33;1.23;;;22.70;90.60;;;;;;5088178;28;20467;-54
2023/07/24 06:45:41;;;;;;;1.60;1.30;;;22.80;90.70;;;;;;5081193;28;20463;-51
2023/07/24 06:48:08;;;;;;;1.40;1.30;;;22.80;90.60;;;;;;5084328;28;20470;-53
2023/07/24 06:50:34;;;;;;;1.50;1.40;;;22.80;90.70;;;;;;5087171;28;20526;-54
2023/07/24 06:53:02;;;;;;;1.20;1.10;;;22.80;90.70;;;;;;5083656;28;20457;-51
2023/07/24 06:55:29;;;;;;;1.23;1.03;;;22.70;90.60;;;;;;5084685;28;20455;-49
2023/07/24 06:57:56;;;;;;;1.10;1.00;;;22.80;90.70;;;;;;5081514;28;20467;-52
2023/07/24 07:00:22;;;;;;;1.13;1.03;;;22.80;90.70;;;;;;5076559;28;20873;-50
2023/07/24 07:02:49;;;;;;;1.13;0.90;;;22.80;90.60;;;;;;5089550;28;20464;-54
2023/07/24 07:05:16;;;;;;;1.50;1.30;;;22.80;90.70;;;;;;5073296;28;20459;-55
2023/07/24 07:07:42;;;;;;;1.20;1.10;;;22.80;90.30;;;;;;5075533;28;20458;-51
2023/07/24 07:10:11;;;;;;;2.03;1.83;;;22.80;90.60;;;;;;5077778;28;20515;-54
2023/07/24 07:12:37;;;;;;;1.43;1.33;;;22.80;90.70;;;;;;5084324;28;20462;-50
2023/07/24 07:15:05;;;;;;;1.60;1.50;;;22.80;90.70;;;;;;5081307;28;20993;-50
2023/07/24 07:17:31;;;;;;;1.50;1.27;;;22.80;90.60;;;;;;5082339;28;20463;-50
2023/07/24 07:19:58;;;;;;;1.60;1.10;;;22.80;90.60;;;;;;5083154;28;20487;-53
2023/07/24 07:22:25;;;;;;;1.60;1.20;;;22.80;90.60;;;;;;5084541;28;21016;-53
2023/07/24 07:24:51;;;;;;;1.70;1.60;;;22.80;90.60;;;;;;5085388;28;20759;-49
2023/07/24 07:27:19;;;;;;;1.90;1.60;;;22.80;90.70;;;;;;5078542;28;20455;-51
2023/07/24 07:29:46;;;;;;;1.60;1.50;;;22.80;90.70;;;;;;5082450;28;21142;-52
2023/07/24 07:32:13;;;;;;;1.20;1.00;;;22.70;90.70;;;;;;5071605;28;20451;-55
2023/07/24 07:34:39;;;;;;;1.30;1.20;;;22.80;90.70;;;;;;5076088;28;20827;-52
2023/07/24 07:37:06;;;;;;;2.40;1.37;;;22.70;90.70;;;;;;5086812;28;20470;-52
2023/07/24 07:39:33;;;;;;;1.33;1.00;;;22.80;90.70;;;;;;5086078;28;20956;-52
2023/07/24 07:42:00;;;;;;;1.47;1.37;;;22.80;90.70;;;;;;5087468;28;20590;-52
2023/07/24 07:44:28;;;;;;;1.30;1.20;;;22.80;90.70;;;;;;5088754;28;20464;-50
2023/07/24 07:46:54;;;;;;;1.63;1.53;;;22.80;90.70;;;;;;5087651;28;20459;-54
2023/07/24 07:49:21;;;;;;;1.30;1.20;;;22.70;91.10;;;;;;5078203;28;20460;-52
2023/07/24 07:51:48;;;;;;;1.30;1.20;;;22.80;90.90;;;;;;5088115;28;20455;-52
2023/07/24 07:54:15;;;;;;;1.90;1.70;;;22.80;91.00;;;;;;5086077;28;20463;-51
2023/07/24 07:56:42;;;;;;;2.43;1.40;;;22.80;91.10;;;;;;5089253;28;20460;-52
2023/07/24 07:59:09;;;;;;;1.50;1.40;;;22.80;91.40;;;;;;5090415;28;20486;-50
2023/07/24 08:01:40;;;;;;;1.87;1.60;;;22.80;91.60;;;;;;5086066;28;20819;-53
2023/07/24 08:04:06;;;;;;;1.50;1.40;;;22.80;91.60;;;;;;5090540;28;21055;-52
2023/07/24 08:06:33;;;;;;;2.53;2.33;;;22.80;91.90;;;;;;5089329;28;20439;-53
2023/07/24 08:09:00;;;;;;;4.17;2.00;;;22.80;91.90;;;;;;5086869;28;20467;-54
2023/07/24 08:11:26;;;;;;;2.77;2.40;;;22.80;92.00;;;;;;5089409;28;20818;-53
2023/07/24 08:13:53;;;;;;;2.50;2.27;;;22.80;92.10;;;;;;5089299;28;20506;-55
2023/07/24 08:16:20;;;;;;;3.13;2.50;;;22.80;92.20;;;;;;5099261;27;20458;-53
2023/07/24 08:18:48;;;;;;;2.30;2.10;;;22.80;92.20;;;;;;5096588;28;20467;-53
2023/07/24 08:21:16;;;;;;;2.80;2.30;;;22.80;92.40;;;;;;5095180;28;20487;-54
2023/07/24 08:23:43;;;;;;;2.93;2.30;;;22.80;92.70;;;;;;5090418;28;20801;-54
2023/07/24 08:26:09;;;;;;;2.90;2.60;;;22.80;92.70;;;;;;5089863;28;20460;-52
2023/07/24 08:28:36;;;;;;;3.50;2.70;;;22.80;92.70;;;;;;5087707;28;21018;-54
2023/07/24 08:31:03;;;;;;;2.80;2.50;;;22.80;92.80;;;;;;5080080;28;20451;-61
2023/07/24 08:33:30;;;;;;;4.13;2.10;;;22.80;93.10;;;;;;5091161;27;20455;-53
2023/07/24 08:36:02;;;;;;;3.17;2.87;;;22.80;93.20;;;;;;5089017;28;20989;-63
2023/07/24 08:38:29;;;;;;;2.80;2.60;;;22.80;93.60;;;;;;5087030;28;21009;-62
2023/07/24 08:41:03;;;;;;;2.60;2.40;;;22.80;94.00;;;;;;5079444;28;21209;-62
2023/07/24 08:43:31;;;;;;;3.37;2.37;;;22.90;93.80;;;;;;5089058;28;20465;-55
2023/07/24 08:45:59;;;;;;;2.97;2.60;;;22.90;93.60;;;;;;5085911;28;20501;-54
2023/07/24 08:48:27;;;;;;;6.20;2.50;;;22.90;93.70;;;;;;5081688;28;20586;-54
2023/07/24 08:50:54;;;;;;;3.27;2.77;;;23.00;93.90;;;;;;5093383;28;20513;-51
2023/07/24 08:53:22;;;;;;;2.80;2.37;;;23.00;94.10;;;;;;5086463;28;21092;-56
2023/07/24 08:55:49;;;;;;;6.50;2.77;;;23.00;94.50;;;;;;5084492;27;20467;-54
2023/07/24 08:58:16;;;;;;;3.00;2.70;;;23.00;94.40;;;;;;5083342;28;20470;-57
2023/07/24 09:00:43;;;;;;;3.83;2.70;;;23.00;94.70;;;;;;5089735;28;20482;-56
2023/07/24 09:03:10;;;;;;;4.63;2.70;;;23.00;94.40;;;;;;5088434;28;20466;-55
2023/07/24 09:05:37;;;;;;;3.80;2.87;;;23.00;94.10;;;;;;5089979;28;20467;-55
2023/07/24 09:08:03;;;;;;;3.93;3.00;;;23.00;94.40;;;;;;5088086;28;20463;-53
2023/07/24 09:10:32;;;;;;;3.30;3.00;;;23.00;94.40;;;;;;5087178;28;20463;-58
2023/07/24 09:12:58;;;;;;;3.33;3.00;;;23.00;94.30;;;;;;5087210;28;20462;-56
2023/07/24 09:15:25;;;;;;;4.87;2.80;;;23.00;94.30;;;;;;5083366;28;20455;-54
2023/07/24 09:17:53;;;;;;;4.33;2.47;;;23.00;94.40;;;;;;5086101;28;20466;-55
2023/07/24 09:20:20;;;;;;;2.73;2.50;;;23.00;94.20;;;;;;5084922;28;20490;-54
2023/07/24 09:22:50;;;;;;;4.53;2.70;;;23.10;94.20;;;;;;5079170;28;20481;-56
2023/07/24 09:25:17;;;;;;;3.00;2.67;;;23.10;94.20;;;;;;5084063;28;20538;-56
2023/07/24 09:27:45;;;;;;;3.30;3.00;;;23.10;94.30;;;;;;5088159;28;20467;-57
2023/07/24 09:30:14;;;;;;;4.40;2.83;;;23.10;94.20;;;;;;5081114;28;20742;-54
2023/07/24 09:32:41;;;;;;;3.83;3.53;;;23.10;94.20;;;;;;5087434;28;20552;-54
2023/07/24 09:35:17;;;;;;;3.10;2.80;;;23.10;94.30;;;;;;5088982;28;20486;-53
2023/07/24 09:37:45;;;;;;;2.43;2.23;;;23.10;94.50;;;;;;5087979;28;20861;-55
2023/07/24 09:40:13;;;;;;;4.77;2.93;;;23.10;94.40;;;;;;5087148;28;20478;-57
2023/07/24 09:42:40;;;;;;;3.50;2.80;;;23.10;94.40;;;;;;5084857;28;20451;-56
2023/07/24 09:45:10;;;;;;;3.23;2.90;;;23.10;94.50;;;;;;5083315;28;20481;-56
2023/07/24 09:47:37;;;;;;;3.40;3.10;;;23.10;94.40;;;;;;5086629;28;20739;-55
2023/07/24 09:50:04;;;;;;;3.53;3.23;;;23.10;94.50;;;;;;5083019;28;20475;-58
2023/07/24 09:52:32;;;;;;;4.73;3.00;;;23.10;94.50;;;;;;5085367;28;20586;-57
2023/07/24 09:55:05;;;;;;;4.30;3.30;;;23.10;94.60;;;;;;5078417;28;20451;-56
2023/07/24 09:57:33;;;;;;;3.60;3.30;;;23.10;94.60;;;;;;5076722;28;20459;-58
2023/07/24 10:00:00;;;;;;;2.90;2.70;;;23.10;94.60;;;;;;5078795;28;21088;-55
2023/07/24 10:02:29;;;;;;;3.40;3.00;;;23.10;94.60;;;;;;5075672;28;20482;-55
2023/07/24 10:04:57;;;;;;;3.30;3.00;;;23.10;94.60;;;;;;5076680;28;20462;-56
2023/07/24 10:07:24;;;;;;;3.60;3.07;;;23.10;94.60;;;;;;5079549;28;20481;-55
2023/07/24 10:09:51;;;;;;;4.13;2.90;;;23.10;94.70;;;;;;5087491;28;20470;-58
2023/07/24 10:12:19;;;;;;;2.90;2.60;;;23.10;95.20;;;;;;5079434;28;20467;-60
2023/07/24 10:14:47;;;;;;;6.77;3.27;;;23.10;95.20;;;;;;5082859;28;21063;-60
2023/07/24 10:17:14;;;;;;;3.53;3.23;;;23.20;95.30;;;;;;5083720;28;20464;-54
2023/07/24 10:19:43;;;;;;;3.40;2.83;;;23.20;95.30;;;;;;5089909;28;20459;-58
2023/07/24 10:22:11;;;;;;;4.00;3.00;;;23.20;95.80;;;;;;5082609;28;20542;-57
2023/07/24 10:24:37;;;;;;;4.20;2.50;;;23.20;95.80;;;;;;5087112;28;20513;-59
2023/07/24 10:27:05;;;;;;;3.43;2.70;;;23.20;96.40;;;;;;5085640;28;20809;-60
2023/07/24 10:29:36;;;;;;;2.60;2.40;;;23.20;96.90;;;;;;5083181;28;20463;-60
2023/07/24 10:32:03;;;;;;;3.17;2.90;;;23.20;96.70;;;;;;5080078;28;20585;-55
2023/07/24 10:34:38;;;;;;;4.00;3.30;;;23.20;96.60;;;;;;5083349;28;20796;-60
2023/07/24 10:37:09;;;;;;;2.80;2.17;;;23.30;96.60;;;;;;5086270;28;20545;-62
2023/07/24 10:39:40;;;;;;;3.40;2.87;;;23.30;96.60;;;;;;5084298;28;20540;-58
2023/07/24 10:42:09;;;;;;;2.93;2.43;;;23.30;96.40;;;;;;5091036;28;20520;-59
2023/07/24 10:44:36;;;;;;;3.37;2.53;;;23.30;96.20;;;;;;5090038;28;20498;-60
2023/07/24 10:47:02;;;;;;;3.87;2.90;;;23.30;96.10;;;;;;5088943;28;20460;-59
2023/07/24 10:49:29;;;;;;;3.80;3.13;;;23.30;96.10;;;;;;5088380;28;20487;-55
2023/07/24 10:51:57;;;;;;;2.77;2.57;;;23.30;96.00;;;;;;5082492;28;20464;-61
2023/07/24 10:54:25;;;;;;;4.43;3.10;;;23.30;96.10;;;;;;5088804;28;20813;-51
2023/07/24 10:56:59;;;;;;;3.57;3.20;;;23.40;96.10;;;;;;5085876;28;20471;-54
2023/07/24 10:59:36;;;;;;;3.27;2.70;;;23.40;95.90;;;;;;5085199;28;20583;-50
2023/07/24 11:02:04;;;;;;;3.60;2.67;;;23.40;95.80;;;;;;5084627;28;20499;-56
2023/07/24 11:04:31;;;;;;;3.30;2.90;;;23.40;95.70;;;;;;5088321;28;20770;-54
2023/07/24 11:06:58;;;;;;;3.07;2.60;;;23.50;95.80;;;;;;5080438;28;20460;-59
2023/07/24 11:09:35;;;;;;;3.10;2.80;;;23.40;95.70;;;;;;5086902;28;21475;-59
2023/07/24 11:12:10;;;;;;;3.30;2.93;;;23.50;95.70;;;;;;5089170;28;20471;-54
2023/07/24 11:14:46;;;;;;;2.30;2.10;;;23.50;95.70;;;;;;5083466;27;21018;-57
2023/07/24 11:17:13;;;;;;;2.90;2.70;;;23.50;95.70;;;;;;5083192;28;20461;-55
2023/07/24 11:19:40;;;;;;;3.93;2.93;;;23.50;95.70;;;;;;5083889;28;21083;-55
2023/07/24 11:22:07;;;;;;;2.77;2.57;;;23.50;95.60;;;;;;5078241;28;21358;-57
2023/07/24 11:24:43;;;;;;;3.00;2.70;;;23.50;95.60;;;;;;5075108;28;21071;-55
2023/07/24 11:27:13;;;;;;;3.33;3.03;;;23.50;95.40;;;;;;5073906;28;20460;-55
2023/07/24 11:29:40;;;;;;;7.03;3.00;;;23.60;95.50;;;;;;5074836;28;20491;-55
2023/07/24 11:32:07;;;;;;;3.93;2.43;;;23.60;95.50;;;;;;5072777;28;21299;-52
2023/07/24 11:34:34;;;;;;;3.07;2.87;;;23.60;97.20;;;;;;5077923;28;20665;-53
2023/07/24 11:37:01;;;;;;;3.50;3.20;;;23.70;96.90;;;;;;5082434;28;20463;-53
2023/07/24 11:39:28;;;;;;;3.03;2.50;;;23.70;97.70;;;;;;5087493;28;20446;-60
2023/07/24 11:41:56;;;;;;;3.80;3.50;;;23.70;98.10;;;;;;5085564;28;20949;-56
2023/07/24 11:44:27;;;;;;;2.47;2.27;;;23.70;98.40;;;;;;5083421;28;21057;-66
2023/07/24 11:47:01;;;;;;;4.10;3.70;;;23.80;98.60;;;;;;5082412;28;20828;-58
2023/07/24 11:49:30;;;;;;;4.20;3.70;;;23.80;98.90;;;;;;5086173;28;20458;-55
2023/07/24 11:52:00;;;;;;;8.60;3.57;;;23.80;99.00;;;;;;5086216;28;20575;-58
2023/07/24 11:54:27;;;;;;;3.53;3.23;;;23.80;99.10;;;;;;5082674;28;20455;-50
2023/07/24 11:56:55;;;;;;;4.93;3.93;;;23.80;99.30;;;;;;5082601;28;21001;-54
2023/07/24 11:59:22;;;;;;;6.00;5.30;;;23.80;99.40;;;;;;5085017;28;20994;-55
2023/07/24 12:01:49;;;;;;;4.53;3.37;;;23.80;99.30;;;;;;5084960;28;20475;-59
2023/07/24 12:04:16;;;;;;;3.13;2.83;;;23.80;99.30;;;;;;5086899;28;20476;-61
2023/07/24 12:06:43;;;;;;;7.47;3.67;;;23.90;99.40;;;;;;5084915;28;20959;-58
2023/07/24 12:09:11;;;;;;;4.73;3.10;;;23.90;99.40;;;;;;5085369;28;20548;-59
2023/07/24 12:11:42;;;;;;;4.40;3.93;;;23.90;99.40;;;;;;5085353;28;20471;-58
2023/07/24 12:14:10;;;;;;;3.60;2.77;;;23.90;99.70;;;;;;5078992;28;20973;-60
2023/07/24 12:16:37;;;;;;;3.80;3.43;;;23.90;99.80;;;;;;5084014;28;20472;-60
2023/07/24 12:19:04;;;;;;;3.70;3.40;;;23.90;99.90;;;;;;5081316;28;20479;-60
2023/07/24 12:21:30;;;;;;;4.13;3.73;;;23.90;99.90;;;;;;5079139;28;20486;-57
2023/07/24 12:23:57;;;;;;;3.30;3.00;;;23.90;99.90;;;;;;5084429;28;20465;-53
2023/07/24 12:26:25;;;;;;;2.80;2.33;;;23.90;99.90;;;;;;5087892;28;21004;-57
2023/07/24 12:28:51;;;;;;;3.87;3.57;;;23.90;99.90;;;;;;5084768;28;20463;-61
2023/07/24 12:31:19;;;;;;;3.80;3.50;;;23.90;99.90;;;;;;5081854;28;20980;-59
2023/07/24 12:33:46;;;;;;;5.97;3.30;;;23.90;99.90;;;;;;5082810;28;20459;-57
2023/07/24 12:36:13;;;;;;;5.13;3.70;;;23.90;99.90;;;;;;5083277;28;21007;-56
2023/07/24 12:38:40;;;;;;;3.50;3.20;;;23.90;99.90;;;;;;5077166;28;20462;-57
2023/07/24 12:41:06;;;;;;;4.03;3.63;;;23.90;99.90;;;;;;5079410;28;20476;-55
2023/07/24 12:43:33;;;;;;;3.70;3.30;;;23.90;99.90;;;;;;5082248;28;20459;-52
2023/07/24 12:46:00;;;;;;;3.60;3.30;;;23.90;99.90;;;;;;5083269;28;20463;-60
2023/07/24 12:48:28;;;;;;;4.10;2.90;;;23.90;99.90;;;;;;5089389;28;20486;-55